sensor_id;sensor_type;location;lat;lon;timestamp;pressure;altitude;pressure_sealevel;temperature;humidity
24440;BME280;12618;54.386;18.394;2023-04-27T00:01:24;99559.77;;;3.44;100.00
24440;BME280;12618;54.386;18.394;2023-04-27T00:03:57;99557.17;;;3.43;100.00
24440;BME280;12618;54.386;18.394;2023-04-27T00:06:29;99560.68;;;3.42;100.00
24440;BME280;12618;54.386;18.394;2023-04-27T00:09:06;99562.23;;;3.43;100.00
24440;BME280;12618;54.386;18.394;2023-04-27T00:11:38;99561.41;;;3.41;100.00
24440;BME280;12618;54.386;18.394;2023-04-27T00:14:12;99562.45;;;3.41;100.00
24440;BME280;12618;54.386;18.394;2023-04-27T00:16:44;99559.34;;;3.40;100.00
24440;BME280;12618;54.386;18.394;2023-04-27T00:19:18;99562.65;;;3.39;100.00
24440;BME280;12618;54.386;18.394;2023-04-27T00:21:49;99562.48;;;3.40;100.00
24440;BME280;12618;54.386;18.394;2023-04-27T00:24:21;99561.23;;;3.41;100.00
24440;BME280;12618;54.386;18.394;2023-04-27T00:26:53;99562.46;;;3.41;100.00
24440;BME280;12618;54.386;18.394;2023-04-27T00:29:24;99564.56;;;3.40;100.00
24440;BME280;12618;54.386;18.394;2023-04-27T00:31:59;99566.48;;;3.40;100.00
24440;BME280;12618;54.386;18.394;2023-04-27T00:34:30;99569.27;;;3.39;100.00
24440;BME280;12618;54.386;18.394;2023-04-27T00:37:03;99571.55;;;3.38;100.00
24440;BME280;12618;54.386;18.394;2023-04-27T00:39:35;99573.12;;;3.38;100.00
24440;BME280;12618;54.386;18.394;2023-04-27T00:42:06;99571.07;;;3.36;100.00
24440;BME280;12618;54.386;18.394;2023-04-27T00:44:42;99570.97;;;3.33;100.00
24440;BME280;12618;54.386;18.394;2023-04-27T00:47:14;99576.44;;;3.29;100.00
24440;BME280;12618;54.386;18.394;2023-04-27T00:49:46;99575.48;;;3.25;100.00
24440;BME280;12618;54.386;18.394;2023-04-27T00:52:17;99574.83;;;3.22;100.00
24440;BME280;12618;54.386;18.394;2023-04-27T00:54:52;99575.59;;;3.19;100.00
24440;BME280;12618;54.386;18.394;2023-04-27T00:57:30;99572.71;;;3.16;100.00
24440;BME280;12618;54.386;18.394;2023-04-27T01:00:02;99576.74;;;3.13;100.00
24440;BME280;12618;54.386;18.394;2023-04-27T01:02:37;99575.20;;;3.12;100.00
24440;BME280;12618;54.386;18.394;2023-04-27T01:05:10;99577.16;;;3.10;100.00
24440;BME280;12618;54.386;18.394;2023-04-27T01:07:43;99573.34;;;3.10;100.00
24440;BME280;12618;54.386;18.394;2023-04-27T01:10:14;99574.37;;;3.11;100.00
24440;BME280;12618;54.386;18.394;2023-04-27T01:12:49;99575.83;;;3.08;100.00
24440;BME280;12618;54.386;18.394;2023-04-27T01:15:22;99576.70;;;3.08;100.00
24440;BME280;12618;54.386;18.394;2023-04-27T01:18:00;99580.53;;;3.08;100.00
24440;BME280;12618;54.386;18.394;2023-04-27T01:20:32;99582.25;;;3.09;100.00
24440;BME280;12618;54.386;18.394;2023-04-27T01:23:04;99582.42;;;3.09;100.00
24440;BME280;12618;54.386;18.394;2023-04-27T01:25:41;99580.17;;;3.08;100.00
24440;BME280;12618;54.386;18.394;2023-04-27T01:28:13;99580.00;;;3.08;100.00
24440;BME280;12618;54.386;18.394;2023-04-27T01:30:44;99579.52;;;3.06;100.00
24440;BME280;12618;54.386;18.394;2023-04-27T01:33:16;99580.22;;;3.05;100.00
24440;BME280;12618;54.386;18.394;2023-04-27T01:35:48;99576.20;;;3.06;100.00
24440;BME280;12618;54.386;18.394;2023-04-27T01:38:20;99579.88;;;3.05;100.00
24440;BME280;12618;54.386;18.394;2023-04-27T01:40:54;99579.58;;;3.03;100.00
24440;BME280;12618;54.386;18.394;2023-04-27T01:43:32;99581.55;;;3.00;100.00
24440;BME280;12618;54.386;18.394;2023-04-27T01:46:08;99587.35;;;2.97;100.00
24440;BME280;12618;54.386;18.394;2023-04-27T01:48:43;99593.70;;;2.91;100.00
24440;BME280;12618;54.386;18.394;2023-04-27T01:51:15;99593.08;;;2.87;100.00
24440;BME280;12618;54.386;18.394;2023-04-27T01:53:46;99593.14;;;2.84;100.00
24440;BME280;12618;54.386;18.394;2023-04-27T01:56:18;99600.30;;;2.82;100.00
24440;BME280;12618;54.386;18.394;2023-04-27T01:58:51;99600.48;;;2.81;100.00
24440;BME280;12618;54.386;18.394;2023-04-27T02:01:25;99600.15;;;2.80;100.00
24440;BME280;12618;54.386;18.394;2023-04-27T02:03:57;99600.00;;;2.78;100.00
24440;BME280;12618;54.386;18.394;2023-04-27T02:06:29;99602.99;;;2.76;100.00
24440;BME280;12618;54.386;18.394;2023-04-27T02:09:01;99602.04;;;2.72;100.00
24440;BME280;12618;54.386;18.394;2023-04-27T02:11:33;99600.88;;;2.69;100.00
24440;BME280;12618;54.386;18.394;2023-04-27T02:14:05;99599.40;;;2.64;100.00
24440;BME280;12618;54.386;18.394;2023-04-27T02:16:36;99601.88;;;2.62;100.00
24440;BME280;12618;54.386;18.394;2023-04-27T02:19:08;99600.03;;;2.58;100.00
24440;BME280;12618;54.386;18.394;2023-04-27T02:21:40;99601.48;;;2.54;100.00
24440;BME280;12618;54.386;18.394;2023-04-27T02:24:11;99600.35;;;2.50;100.00
24440;BME280;12618;54.386;18.394;2023-04-27T02:26:43;99600.38;;;2.47;100.00
24440;BME280;12618;54.386;18.394;2023-04-27T02:29:17;99600.73;;;2.47;100.00
24440;BME280;12618;54.386;18.394;2023-04-27T02:31:49;99603.24;;;2.43;100.00
24440;BME280;12618;54.386;18.394;2023-04-27T02:34:21;99606.27;;;2.38;100.00
24440;BME280;12618;54.386;18.394;2023-04-27T02:36:52;99602.52;;;2.34;100.00
24440;BME280;12618;54.386;18.394;2023-04-27T02:39:24;99604.60;;;2.34;100.00
24440;BME280;12618;54.386;18.394;2023-04-27T02:41:55;99604.79;;;2.33;100.00
24440;BME280;12618;54.386;18.394;2023-04-27T02:44:28;99605.18;;;2.32;100.00
24440;BME280;12618;54.386;18.394;2023-04-27T02:46:59;99606.61;;;2.29;100.00
24440;BME280;12618;54.386;18.394;2023-04-27T02:49:31;99608.38;;;2.27;100.00
24440;BME280;12618;54.386;18.394;2023-04-27T02:52:03;99605.11;;;2.24;100.00
24440;BME280;12618;54.386;18.394;2023-04-27T02:54:34;99607.96;;;2.20;100.00
24440;BME280;12618;54.386;18.394;2023-04-27T02:57:06;99606.60;;;2.18;100.00
24440;BME280;12618;54.386;18.394;2023-04-27T02:59:38;99612.34;;;2.18;100.00
24440;BME280;12618;54.386;18.394;2023-04-27T03:02:09;99617.60;;;2.13;100.00
24440;BME280;12618;54.386;18.394;2023-04-27T03:04:41;99615.23;;;2.09;100.00
24440;BME280;12618;54.386;18.394;2023-04-27T03:12:38;99626.02;;;2.08;100.00
24440;BME280;12618;54.386;18.394;2023-04-27T03:15:13;99627.77;;;2.06;100.00
24440;BME280;12618;54.386;18.394;2023-04-27T03:17:50;99633.48;;;2.07;100.00
24440;BME280;12618;54.386;18.394;2023-04-27T03:20:21;99630.72;;;2.07;100.00
24440;BME280;12618;54.386;18.394;2023-04-27T03:22:54;99633.17;;;2.05;100.00
24440;BME280;12618;54.386;18.394;2023-04-27T03:25:25;99634.05;;;2.04;100.00
24440;BME280;12618;54.386;18.394;2023-04-27T03:27:59;99636.86;;;2.02;100.00
24440;BME280;12618;54.386;18.394;2023-04-27T03:30:31;99636.84;;;2.03;100.00
24440;BME280;12618;54.386;18.394;2023-04-27T03:33:03;99636.83;;;2.04;100.00
24440;BME280;12618;54.386;18.394;2023-04-27T03:35:38;99637.55;;;2.03;100.00
24440;BME280;12618;54.386;18.394;2023-04-27T03:38:10;99638.04;;;2.05;100.00
24440;BME280;12618;54.386;18.394;2023-04-27T03:40:41;99636.63;;;2.07;100.00
24440;BME280;12618;54.386;18.394;2023-04-27T03:43:13;99640.95;;;2.08;100.00
24440;BME280;12618;54.386;18.394;2023-04-27T03:45:45;99641.08;;;2.10;100.00
24440;BME280;12618;54.386;18.394;2023-04-27T03:48:19;99639.80;;;2.15;100.00
24440;BME280;12618;54.386;18.394;2023-04-27T03:50:53;99645.27;;;2.20;100.00
24440;BME280;12618;54.386;18.394;2023-04-27T03:53:25;99643.83;;;2.24;100.00
24440;BME280;12618;54.386;18.394;2023-04-27T03:55:57;99645.81;;;2.31;100.00
24440;BME280;12618;54.386;18.394;2023-04-27T03:58:29;99642.17;;;2.41;100.00
24440;BME280;12618;54.386;18.394;2023-04-27T04:01:03;99652.14;;;2.58;100.00
24440;BME280;12618;54.386;18.394;2023-04-27T04:03:36;99652.42;;;2.71;100.00
24440;BME280;12618;54.386;18.394;2023-04-27T04:06:08;99654.63;;;2.85;100.00
24440;BME280;12618;54.386;18.394;2023-04-27T04:08:45;99651.95;;;2.98;100.00
24440;BME280;12618;54.386;18.394;2023-04-27T04:11:16;99653.61;;;3.12;100.00
24440;BME280;12618;54.386;18.394;2023-04-27T04:13:50;99654.37;;;3.27;100.00
24440;BME280;12618;54.386;18.394;2023-04-27T04:16:22;99650.30;;;3.39;100.00
24440;BME280;12618;54.386;18.394;2023-04-27T04:18:54;99656.70;;;3.50;100.00
24440;BME280;12618;54.386;18.394;2023-04-27T04:21:28;99657.07;;;3.57;100.00
24440;BME280;12618;54.386;18.394;2023-04-27T04:23:59;99662.21;;;3.60;100.00
24440;BME280;12618;54.386;18.394;2023-04-27T04:26:31;99664.59;;;3.64;100.00
24440;BME280;12618;54.386;18.394;2023-04-27T04:29:06;99665.73;;;3.67;100.00
24440;BME280;12618;54.386;18.394;2023-04-27T04:31:41;99668.04;;;3.74;100.00
24440;BME280;12618;54.386;18.394;2023-04-27T04:34:13;99670.18;;;3.79;100.00
24440;BME280;12618;54.386;18.394;2023-04-27T04:36:45;99675.46;;;3.85;100.00
24440;BME280;12618;54.386;18.394;2023-04-27T04:39:17;99671.51;;;3.90;100.00
24440;BME280;12618;54.386;18.394;2023-04-27T04:41:54;99679.19;;;3.97;100.00
24440;BME280;12618;54.386;18.394;2023-04-27T04:44:26;99679.98;;;4.09;100.00
24440;BME280;12618;54.386;18.394;2023-04-27T04:46:58;99679.80;;;4.17;100.00
24440;BME280;12618;54.386;18.394;2023-04-27T04:49:32;99675.11;;;4.23;100.00
24440;BME280;12618;54.386;18.394;2023-04-27T04:52:04;99673.80;;;4.28;100.00
24440;BME280;12618;54.386;18.394;2023-04-27T04:54:35;99667.70;;;4.35;100.00
24440;BME280;12618;54.386;18.394;2023-04-27T04:57:10;99666.62;;;4.45;100.00
24440;BME280;12618;54.386;18.394;2023-04-27T04:59:41;99667.13;;;4.60;100.00
24440;BME280;12618;54.386;18.394;2023-04-27T05:02:14;99669.77;;;4.79;100.00
24440;BME280;12618;54.386;18.394;2023-04-27T05:04:46;99668.70;;;5.01;100.00
24440;BME280;12618;54.386;18.394;2023-04-27T05:07:20;99672.99;;;5.17;100.00
24440;BME280;12618;54.386;18.394;2023-04-27T05:09:58;99672.27;;;5.23;100.00
24440;BME280;12618;54.386;18.394;2023-04-27T05:12:30;99677.98;;;5.32;100.00
24440;BME280;12618;54.386;18.394;2023-04-27T05:15:02;99683.34;;;5.34;100.00
24440;BME280;12618;54.386;18.394;2023-04-27T05:17:34;99687.71;;;5.27;100.00
24440;BME280;12618;54.386;18.394;2023-04-27T05:20:06;99691.09;;;5.18;100.00
24440;BME280;12618;54.386;18.394;2023-04-27T05:22:41;99695.26;;;5.11;100.00
24440;BME280;12618;54.386;18.394;2023-04-27T05:25:12;99699.50;;;5.17;100.00
24440;BME280;12618;54.386;18.394;2023-04-27T05:27:46;99699.30;;;5.24;100.00
24440;BME280;12618;54.386;18.394;2023-04-27T05:30:18;99697.91;;;5.30;100.00
24440;BME280;12618;54.386;18.394;2023-04-27T05:32:50;99701.30;;;5.40;100.00
24440;BME280;12618;54.386;18.394;2023-04-27T05:35:22;99698.28;;;5.61;100.00
24440;BME280;12618;54.386;18.394;2023-04-27T05:37:54;99702.72;;;5.83;100.00
24440;BME280;12618;54.386;18.394;2023-04-27T05:40:25;99702.27;;;5.94;100.00
24440;BME280;12618;54.386;18.394;2023-04-27T05:42:57;99701.80;;;5.98;100.00
24440;BME280;12618;54.386;18.394;2023-04-27T05:45:32;99705.19;;;5.89;100.00
24440;BME280;12618;54.386;18.394;2023-04-27T05:48:06;99707.72;;;5.79;100.00
24440;BME280;12618;54.386;18.394;2023-04-27T05:50:40;99706.70;;;5.77;100.00
24440;BME280;12618;54.386;18.394;2023-04-27T05:53:12;99710.81;;;5.87;100.00
24440;BME280;12618;54.386;18.394;2023-04-27T05:55:43;99716.03;;;6.07;100.00
24440;BME280;12618;54.386;18.394;2023-04-27T05:58:15;99714.23;;;6.21;100.00
24440;BME280;12618;54.386;18.394;2023-04-27T06:00:49;99713.61;;;6.34;99.86
24440;BME280;12618;54.386;18.394;2023-04-27T06:03:24;99717.10;;;6.40;99.66
24440;BME280;12618;54.386;18.394;2023-04-27T06:05:59;99722.20;;;6.34;98.72
24440;BME280;12618;54.386;18.394;2023-04-27T06:08:31;99718.73;;;6.33;98.77
24440;BME280;12618;54.386;18.394;2023-04-27T06:11:02;99718.88;;;6.45;99.81
24440;BME280;12618;54.386;18.394;2023-04-27T06:13:37;99723.70;;;6.42;97.63
24440;BME280;12618;54.386;18.394;2023-04-27T06:16:09;99720.27;;;6.34;98.97
24440;BME280;12618;54.386;18.394;2023-04-27T06:18:41;99719.90;;;6.29;99.41
24440;BME280;12618;54.386;18.394;2023-04-27T06:21:13;99715.17;;;6.35;99.97
24440;BME280;12618;54.386;18.394;2023-04-27T06:23:47;99717.62;;;6.46;99.73
24440;BME280;12618;54.386;18.394;2023-04-27T06:26:19;99713.27;;;6.67;99.22
24440;BME280;12618;54.386;18.394;2023-04-27T06:28:51;99711.02;;;7.19;97.38
24440;BME280;12618;54.386;18.394;2023-04-27T06:31:22;99708.17;;;7.89;95.36
24440;BME280;12618;54.386;18.394;2023-04-27T06:33:54;99701.67;;;8.45;90.10
24440;BME280;12618;54.386;18.394;2023-04-27T06:36:28;99693.27;;;8.88;87.36
24440;BME280;12618;54.386;18.394;2023-04-27T06:39:02;99691.24;;;9.60;87.86
24440;BME280;12618;54.386;18.394;2023-04-27T06:41:34;99694.27;;;10.18;83.37
24440;BME280;12618;54.386;18.394;2023-04-27T06:44:08;99692.70;;;10.72;83.83
24440;BME280;12618;54.386;18.394;2023-04-27T06:46:40;99699.02;;;11.29;76.37
24440;BME280;12618;54.386;18.394;2023-04-27T06:49:12;99699.00;;;11.70;76.44
24440;BME280;12618;54.386;18.394;2023-04-27T06:51:44;99693.06;;;12.24;70.15
24440;BME280;12618;54.386;18.394;2023-04-27T06:54:17;99693.98;;;12.59;68.99
24440;BME280;12618;54.386;18.394;2023-04-27T06:56:49;99699.14;;;12.26;66.01
24440;BME280;12618;54.386;18.394;2023-04-27T06:59:20;99706.14;;;11.54;66.24
24440;BME280;12618;54.386;18.394;2023-04-27T07:01:52;99705.78;;;10.67;70.89
24440;BME280;12618;54.386;18.394;2023-04-27T07:04:26;99706.74;;;9.94;70.88
24440;BME280;12618;54.386;18.394;2023-04-27T07:14:05;99711.38;;;9.85;70.55
24440;BME280;12618;54.386;18.394;2023-04-27T07:16:40;99710.55;;;11.34;67.84
24440;BME280;12618;54.386;18.394;2023-04-27T07:19:12;99712.52;;;12.74;62.06
24440;BME280;12618;54.386;18.394;2023-04-27T07:21:44;99708.91;;;13.74;55.18
24440;BME280;12618;54.386;18.394;2023-04-27T07:24:16;99718.54;;;13.99;52.42
24440;BME280;12618;54.386;18.394;2023-04-27T07:26:50;99723.19;;;14.21;49.87
24440;BME280;12618;54.386;18.394;2023-04-27T07:29:22;99720.42;;;12.81;49.25
24440;BME280;12618;54.386;18.394;2023-04-27T07:31:58;99725.38;;;11.40;49.59
24440;BME280;12618;54.386;18.394;2023-04-27T07:34:29;99720.64;;;10.84;54.27
24440;BME280;12618;54.386;18.394;2023-04-27T07:37:15;99715.21;;;11.84;54.34
24440;BME280;12618;54.386;18.394;2023-04-27T07:39:48;99719.91;;;12.14;51.41
24440;BME280;12618;54.386;18.394;2023-04-27T07:42:20;99718.14;;;12.75;47.08
24440;BME280;12618;54.386;18.394;2023-04-27T07:44:56;99716.18;;;13.48;49.22
24440;BME280;12618;54.386;18.394;2023-04-27T07:47:28;99717.51;;;13.52;45.46
24440;BME280;12618;54.386;18.394;2023-04-27T07:49:59;99719.96;;;13.50;45.40
24440;BME280;12618;54.386;18.394;2023-04-27T07:52:32;99715.17;;;13.53;46.28
24440;BME280;12618;54.386;18.394;2023-04-27T07:55:04;99722.95;;;14.42;44.04
24440;BME280;12618;54.386;18.394;2023-04-27T07:57:36;99717.49;;;15.04;44.25
24440;BME280;12618;54.386;18.394;2023-04-27T08:00:08;99722.78;;;15.70;42.40
24440;BME280;12618;54.386;18.394;2023-04-27T08:02:41;99727.95;;;14.98;42.29
24440;BME280;12618;54.386;18.394;2023-04-27T08:05:16;99749.33;;;14.13;45.51
24440;BME280;12618;54.386;18.394;2023-04-27T08:07:50;99762.56;;;12.72;50.84
24440;BME280;12618;54.386;18.394;2023-04-27T08:10:27;99767.80;;;11.23;57.04
24440;BME280;12618;54.386;18.394;2023-04-27T08:12:59;99768.05;;;9.95;62.33
24440;BME280;12618;54.386;18.394;2023-04-27T08:15:33;99769.87;;;9.28;66.00
24440;BME280;12618;54.386;18.394;2023-04-27T08:18:07;99767.41;;;9.07;68.21
24440;BME280;12618;54.386;18.394;2023-04-27T08:20:39;99766.91;;;10.08;66.21
24440;BME280;12618;54.386;18.394;2023-04-27T08:23:11;99758.63;;;11.75;61.96
24440;BME280;12618;54.386;18.394;2023-04-27T08:25:43;99758.58;;;13.54;55.96
24440;BME280;12618;54.386;18.394;2023-04-27T08:28:15;99754.36;;;14.00;49.79
24440;BME280;12618;54.386;18.394;2023-04-27T08:30:47;99757.91;;;15.08;48.52
24440;BME280;12618;54.386;18.394;2023-04-27T08:33:19;99753.14;;;16.33;46.52
24440;BME280;12618;54.386;18.394;2023-04-27T08:35:53;99750.92;;;17.10;42.83
24440;BME280;12618;54.386;18.394;2023-04-27T08:38:25;99746.19;;;17.75;41.03
24440;BME280;12618;54.386;18.394;2023-04-27T08:40:57;99748.16;;;18.51;40.38
24440;BME280;12618;54.386;18.394;2023-04-27T08:43:44;99744.34;;;19.08;36.53
24440;BME280;12618;54.386;18.394;2023-04-27T08:46:20;99747.81;;;19.64;36.86
24440;BME280;12618;54.386;18.394;2023-04-27T08:48:55;99749.51;;;18.59;35.20
24440;BME280;12618;54.386;18.394;2023-04-27T08:51:27;99747.92;;;17.40;37.57
24440;BME280;12618;54.386;18.394;2023-04-27T08:53:59;99748.78;;;16.64;38.29
24440;BME280;12618;54.386;18.394;2023-04-27T08:56:39;99744.35;;;15.29;39.01
24440;BME280;12618;54.386;18.394;2023-04-27T08:59:15;99749.55;;;14.43;41.60
24440;BME280;12618;54.386;18.394;2023-04-27T09:01:48;99757.71;;;13.42;42.23
24440;BME280;12618;54.386;18.394;2023-04-27T09:04:20;99759.41;;;13.58;43.32
24440;BME280;12618;54.386;18.394;2023-04-27T09:06:55;99756.48;;;13.33;43.87
24440;BME280;12618;54.386;18.394;2023-04-27T09:09:27;99759.14;;;12.74;44.72
24440;BME280;12618;54.386;18.394;2023-04-27T09:12:21;99760.48;;;12.34;47.45
24440;BME280;12618;54.386;18.394;2023-04-27T09:14:57;99760.27;;;11.92;49.10
24440;BME280;12618;54.386;18.394;2023-04-27T09:17:29;99765.89;;;11.37;51.29
24440;BME280;12618;54.386;18.394;2023-04-27T09:20:06;99761.11;;;11.16;53.29
24440;BME280;12618;54.386;18.394;2023-04-27T09:22:46;99768.47;;;10.85;54.51
24440;BME280;12618;54.386;18.394;2023-04-27T09:25:36;99764.77;;;10.44;55.87
24440;BME280;12618;54.386;18.394;2023-04-27T09:28:13;99760.95;;;10.12;57.37
24440;BME280;12618;54.386;18.394;2023-04-27T09:30:52;99759.29;;;10.06;59.36
24440;BME280;12618;54.386;18.394;2023-04-27T09:33:30;99759.88;;;10.62;58.80
24440;BME280;12618;54.386;18.394;2023-04-27T09:36:06;99758.38;;;10.68;58.01
24440;BME280;12618;54.386;18.394;2023-04-27T09:38:37;99777.84;;;10.47;57.66
24440;BME280;12618;54.386;18.394;2023-04-27T09:41:14;99794.69;;;9.85;61.38
24440;BME280;12618;54.386;18.394;2023-04-27T09:43:47;99808.98;;;8.99;66.47
24440;BME280;12618;54.386;18.394;2023-04-27T09:46:19;99810.20;;;8.36;72.01
24440;BME280;12618;54.386;18.394;2023-04-27T09:48:53;99808.19;;;7.99;78.82
24440;BME280;12618;54.386;18.394;2023-04-27T09:51:29;99805.50;;;8.15;80.08
24440;BME280;12618;54.386;18.394;2023-04-27T09:54:07;99799.48;;;8.59;80.55
24440;BME280;12618;54.386;18.394;2023-04-27T10:02:19;99798.92;;;11.03;70.09
24440;BME280;12618;54.386;18.394;2023-04-27T10:05:15;99800.30;;;11.22;62.83
24440;BME280;12618;54.386;18.394;2023-04-27T10:07:55;99815.09;;;10.47;64.42
24440;BME280;12618;54.386;18.394;2023-04-27T10:10:27;99826.77;;;9.45;66.55
24440;BME280;12618;54.386;18.394;2023-04-27T10:13:02;99841.81;;;8.48;73.12
24440;BME280;12618;54.386;18.394;2023-04-27T10:15:38;99838.37;;;7.78;72.99
24440;BME280;12618;54.386;18.394;2023-04-27T10:18:10;99821.92;;;7.21;72.38
24440;BME280;12618;54.386;18.394;2023-04-27T10:20:48;99795.23;;;6.91;71.93
24440;BME280;12618;54.386;18.394;2023-04-27T10:23:25;99800.17;;;7.17;75.34
24440;BME280;12618;54.386;18.394;2023-04-27T10:26:06;99795.23;;;7.84;75.14
24440;BME280;12618;54.386;18.394;2023-04-27T10:28:38;99795.98;;;8.77;72.02
24440;BME280;12618;54.386;18.394;2023-04-27T10:31:10;99789.44;;;9.80;69.04
24440;BME280;12618;54.386;18.394;2023-04-27T10:33:45;99792.30;;;10.87;67.45
24440;BME280;12618;54.386;18.394;2023-04-27T10:36:18;99791.54;;;11.87;62.56
24440;BME280;12618;54.386;18.394;2023-04-27T10:38:54;99794.47;;;12.38;58.40
24440;BME280;12618;54.386;18.394;2023-04-27T10:41:33;99782.69;;;12.50;55.81
24440;BME280;12618;54.386;18.394;2023-04-27T10:44:15;99783.34;;;12.92;54.25
24440;BME280;12618;54.386;18.394;2023-04-27T10:46:52;99781.74;;;13.24;52.18
24440;BME280;12618;54.386;18.394;2023-04-27T10:49:29;99782.48;;;13.59;52.82
24440;BME280;12618;54.386;18.394;2023-04-27T10:52:08;99776.86;;;14.22;53.32
24440;BME280;12618;54.386;18.394;2023-04-27T10:54:45;99779.66;;;14.66;50.84
24440;BME280;12618;54.386;18.394;2023-04-27T10:57:17;99777.77;;;14.79;48.84
24440;BME280;12618;54.386;18.394;2023-04-27T10:59:51;99777.45;;;14.65;45.51
24440;BME280;12618;54.386;18.394;2023-04-27T11:02:25;99777.77;;;14.51;47.41
24440;BME280;12618;54.386;18.394;2023-04-27T11:04:57;99769.58;;;14.71;48.32
24440;BME280;12618;54.386;18.394;2023-04-27T11:07:29;99776.58;;;14.81;46.90
24440;BME280;12618;54.386;18.394;2023-04-27T11:10:01;99777.98;;;14.81;45.26
24440;BME280;12618;54.386;18.394;2023-04-27T11:12:40;99778.23;;;14.88;45.35
24440;BME280;12618;54.386;18.394;2023-04-27T11:15:12;99783.21;;;14.71;43.88
24440;BME280;12618;54.386;18.394;2023-04-27T11:17:44;99775.92;;;14.09;45.25
24440;BME280;12618;54.386;18.394;2023-04-27T11:20:23;99789.09;;;13.43;45.13
24440;BME280;12618;54.386;18.394;2023-04-27T11:22:58;99795.13;;;12.49;44.09
24440;BME280;12618;54.386;18.394;2023-04-27T11:25:30;99798.92;;;11.70;44.73
24440;BME280;12618;54.386;18.394;2023-04-27T11:28:02;99798.67;;;11.36;46.55
24440;BME280;12618;54.386;18.394;2023-04-27T11:30:34;99798.72;;;11.85;46.73
24440;BME280;12618;54.386;18.394;2023-04-27T11:33:07;99799.58;;;12.61;47.28
24440;BME280;12618;54.386;18.394;2023-04-27T11:35:39;99798.48;;;13.09;43.61
24440;BME280;12618;54.386;18.394;2023-04-27T11:38:16;99799.41;;;13.51;43.76
24440;BME280;12618;54.386;18.394;2023-04-27T11:41:06;99795.72;;;13.95;45.15
24440;BME280;12618;54.386;18.394;2023-04-27T11:43:42;99799.58;;;14.53;44.12
24440;BME280;12618;54.386;18.394;2023-04-27T11:46:23;99802.15;;;14.38;41.92
24440;BME280;12618;54.386;18.394;2023-04-27T11:49:00;99805.83;;;14.24;40.70
24440;BME280;12618;54.386;18.394;2023-04-27T11:51:38;99806.33;;;14.24;41.66
24440;BME280;12618;54.386;18.394;2023-04-27T11:54:10;99808.84;;;14.01;39.48
24440;BME280;12618;54.386;18.394;2023-04-27T11:56:45;99805.64;;;13.57;38.08
24440;BME280;12618;54.386;18.394;2023-04-27T11:59:19;99801.35;;;13.60;38.75
24440;BME280;12618;54.386;18.394;2023-04-27T12:01:51;99803.39;;;13.58;39.39
24440;BME280;12618;54.386;18.394;2023-04-27T12:04:27;99809.48;;;13.08;38.89
24440;BME280;12618;54.386;18.394;2023-04-27T12:07:01;99813.48;;;12.46;40.98
24440;BME280;12618;54.386;18.394;2023-04-27T12:09:33;99817.31;;;12.20;41.01
24440;BME280;12618;54.386;18.394;2023-04-27T12:12:05;99819.59;;;12.30;42.53
24440;BME280;12618;54.386;18.394;2023-04-27T12:14:37;99818.07;;;12.29;41.74
24440;BME280;12618;54.386;18.394;2023-04-27T12:17:12;99825.63;;;12.00;41.70
24440;BME280;12618;54.386;18.394;2023-04-27T12:19:46;99827.19;;;11.90;41.58
24440;BME280;12618;54.386;18.394;2023-04-27T12:22:18;99832.14;;;11.44;41.20
24440;BME280;12618;54.386;18.394;2023-04-27T12:24:50;99827.68;;;11.06;42.96
24440;BME280;12618;54.386;18.394;2023-04-27T12:27:22;99826.05;;;11.17;44.35
24440;BME280;12618;54.386;18.394;2023-04-27T12:29:53;99828.77;;;11.44;44.23
24440;BME280;12618;54.386;18.394;2023-04-27T12:32:25;99832.78;;;11.66;40.82
24440;BME280;12618;54.386;18.394;2023-04-27T12:34:58;99823.72;;;11.99;41.18
24440;BME280;12618;54.386;18.394;2023-04-27T12:37:29;99827.06;;;12.35;40.69
24440;BME280;12618;54.386;18.394;2023-04-27T12:40:02;99832.60;;;12.04;40.14
24440;BME280;12618;54.386;18.394;2023-04-27T12:42:42;99840.77;;;11.22;43.02
24440;BME280;12618;54.386;18.394;2023-04-27T12:45:13;99854.92;;;10.69;46.91
24440;BME280;12618;54.386;18.394;2023-04-27T12:47:45;99860.88;;;10.50;49.80
24440;BME280;12618;54.386;18.394;2023-04-27T12:50:36;99870.12;;;10.08;53.14
24440;BME280;12618;54.386;18.394;2023-04-27T12:53:08;99875.83;;;9.94;54.65
24440;BME280;12618;54.386;18.394;2023-04-27T12:55:40;99874.45;;;10.18;52.68
24440;BME280;12618;54.386;18.394;2023-04-27T12:58:11;99867.24;;;10.61;50.85
24440;BME280;12618;54.386;18.394;2023-04-27T13:00:43;99868.73;;;10.86;48.72
24440;BME280;12618;54.386;18.394;2023-04-27T13:03:15;99871.33;;;10.87;46.20
24440;BME280;12618;54.386;18.394;2023-04-27T13:05:47;99871.04;;;10.93;45.71
24440;BME280;12618;54.386;18.394;2023-04-27T13:08:19;99872.09;;;11.05;45.63
24440;BME280;12618;54.386;18.394;2023-04-27T13:10:51;99876.84;;;11.16;44.16
24440;BME280;12618;54.386;18.394;2023-04-27T13:13:23;99875.84;;;11.04;43.17
24440;BME280;12618;54.386;18.394;2023-04-27T13:15:55;99876.76;;;10.80;43.84
24440;BME280;12618;54.386;18.394;2023-04-27T13:18:29;99877.73;;;10.67;43.90
24440;BME280;12618;54.386;18.394;2023-04-27T13:21:07;99881.23;;;10.75;44.84
24440;BME280;12618;54.386;18.394;2023-04-27T13:23:40;99881.44;;;10.78;43.45
24440;BME280;12618;54.386;18.394;2023-04-27T13:26:14;99887.66;;;10.73;43.40
24440;BME280;12618;54.386;18.394;2023-04-27T13:28:47;99890.70;;;10.41;45.23
24440;BME280;12618;54.386;18.394;2023-04-27T13:31:19;99896.31;;;10.37;47.14
24440;BME280;12618;54.386;18.394;2023-04-27T13:33:52;99892.05;;;10.61;48.19
24440;BME280;12618;54.386;18.394;2023-04-27T13:36:23;99893.14;;;10.83;47.81
24440;BME280;12618;54.386;18.394;2023-04-27T13:38:57;99894.44;;;10.86;46.63
24440;BME280;12618;54.386;18.394;2023-04-27T13:41:30;99893.64;;;10.88;46.75